Time;durP1;ratioP1;P1;durP2;ratioP2;P2;SDS_P1;SDS_P2;PMS_P1;PMS_P2;Temp;Humidity;BMP_temperature;BMP_pressure;BME280_temperature;BME280_humidity;BME280_pressure;Samples;Min_cycle;Max_cycle;Signal;HPM_P1;HPM_P2
2022/01/28 00:38:11;;;;;;;;;;;5.30;99.90;;;;;;4827222;29;19924;-77
2022/01/28 00:40:37;;;;;;;;;;;5.20;99.90;;;;;;4827505;29;19925;-77
2022/01/28 00:43:03;;;;;;;;;;;5.10;99.90;;;;;;4827493;29;19931;-77
2022/01/28 00:45:28;;;;;;;;;;;5.10;99.90;;;;;;4827065;29;19924;-77
2022/01/28 01:37:58;;;;;;;;;;;4.60;99.90;;;;;;4841260;29;19925;-77
2022/01/28 01:40:33;;;;;;;;;;;4.60;99.90;;;;;;4822639;29;20433;-76
2022/01/28 01:43:14;;;;;;;;;;;4.60;99.90;;;;;;4823147;29;19997;-77
2022/01/28 01:56:19;;;;;;;;;;;4.70;99.90;;;;;;4940150;24;19976;-77
2022/01/28 01:58:45;;;;;;;;;;;4.70;99.90;;;;;;4826068;29;20384;-76
2022/01/28 02:01:14;;;;;;;;;;;4.70;99.90;;;;;;4826171;29;19920;-76
2022/01/28 02:03:39;;;;;;;;;;;4.80;99.90;;;;;;4825412;29;19924;-76
2022/01/28 02:06:08;;;;;;;;;;;4.80;99.90;;;;;;4810955;29;20060;-77
2022/01/28 02:08:34;;;;;;;;;;;4.80;99.90;;;;;;4807281;29;19982;-77
2022/01/28 02:11:00;;;;;;;;;;;4.90;99.90;;;;;;4824251;29;19928;-77
2022/01/28 02:13:30;;;;;;;;;;;4.90;99.90;;;;;;4807633;29;19925;-77
2022/01/28 02:15:56;;;;;;;;;;;4.90;99.90;;;;;;4807407;29;19932;-77
2022/01/28 02:18:22;;;;;;;;;;;4.90;99.90;;;;;;4807717;29;19932;-77
2022/01/28 02:20:50;;;;;;;;;;;4.90;99.90;;;;;;4808640;29;19924;-77
2022/01/28 02:23:20;;;;;;;;;;;4.90;99.90;;;;;;4823634;29;19977;-77
2022/01/28 02:25:45;;;;;;;;;;;4.80;99.90;;;;;;4823403;29;19924;-77
2022/01/28 02:28:12;;;;;;;;;;;4.70;99.90;;;;;;4808791;29;20282;-77
2022/01/28 02:30:37;;;;;;;;;;;4.70;99.90;;;;;;4806945;29;19968;-77
2022/01/28 02:33:18;;;;;;;;;;;4.70;99.90;;;;;;4823699;29;20394;-77
2022/01/28 02:35:45;;;;;;;;;;;4.70;99.90;;;;;;4823875;29;19929;-77
2022/01/28 02:38:11;;;;;;;;;;;5.50;99.90;;;;;;4809145;29;19932;-77
2022/01/28 02:40:37;;;;;;;;;;;4.70;99.90;;;;;;4828973;29;19980;-77
2022/01/28 02:45:48;;;;;;;;;;;4.80;99.90;;;;;;4810818;29;19932;-77
2022/01/28 02:48:18;;;;;;;;;;;4.90;99.90;;;;;;4811639;29;19924;-77
2022/01/28 02:50:59;;;;;;;;;;;4.90;99.90;;;;;;4827065;29;19932;-77
2022/01/28 02:53:37;;;;;;;;;;;5.00;99.90;;;;;;4811446;29;20066;-77
2022/01/28 02:56:11;;;;;;;;;;;5.10;99.90;;;;;;4810566;29;19925;-77
2022/01/28 02:58:37;;;;;;;;;;;5.10;99.90;;;;;;4810476;29;19978;-77
2022/01/28 03:01:03;;;;;;;;;;;5.10;99.90;;;;;;4826517;29;19971;-77
2022/01/28 03:03:28;;;;;;;;;;;5.10;99.90;;;;;;4827365;29;19925;-77
2022/01/28 03:05:54;;;;;;;;;;;5.00;99.90;;;;;;4810592;29;20449;-77
2022/01/28 03:08:23;;;;;;;;;;;5.00;99.90;;;;;;4810944;29;19931;-77
2022/01/28 03:15:53;;;;;;;;;;;4.80;99.90;;;;;;5600477;23;19925;-77
2022/01/28 03:26:54;;;;;;;;;;;4.70;99.90;;;;;;4073197;23;20384;-78
2022/01/28 03:29:23;;;;;;;;;;;3.60;99.90;;;;;;4795951;29;19932;-78
2022/01/28 03:39:00;;;;;;;;;;;5.20;99.90;;;;;;4839080;29;19923;-78
2022/01/28 05:05:58;;;;;;;;;;;4.80;99.90;;;;;;4845092;29;20362;-77
2022/01/28 05:09:00;;;;;;;;;;;4.80;99.90;;;;;;4844823;29;19924;-76
2022/01/28 05:11:48;;;;;;;;;;;4.80;99.90;;;;;;4844954;29;19924;-76
2022/01/28 05:42:31;;;;;;;;;;;4.30;99.90;;;;;;4910477;24;19924;-76
2022/01/28 05:49:02;;;;;;;;;;;3.30;99.90;;;;;;4842478;29;19923;-76
2022/01/28 06:05:58;;;;;;;;;;;3.00;99.90;;;;;;4842156;29;19919;-76
2022/01/28 06:08:58;;;;;;;;;;;3.90;99.90;;;;;;4825448;29;19935;-76
2022/01/28 06:11:49;;;;;;;;;;;4.10;99.90;;;;;;4829511;29;19928;-76
2022/01/28 06:17:46;;;;;;;;;;;2.40;99.90;;;;;;4860275;29;19918;-76
2022/01/28 06:20:19;;;;;;;;;;;5.50;99.90;;;;;;4844273;29;19924;-76
2022/01/28 06:22:44;;;;;;;;;;;3.00;99.90;;;;;;4843385;29;19931;-78
2022/01/28 06:25:13;;;;;;;;;;;3.90;99.90;;;;;;4842808;29;19963;-78
2022/01/28 06:27:39;;;;;;;;;;;3.90;99.90;;;;;;4841105;29;19991;-81
2022/01/28 06:30:05;;;;;;;;;;;3.90;99.90;;;;;;4861975;29;20372;-76
2022/01/28 06:32:31;;;;;;;;;;;3.80;99.90;;;;;;4850025;29;20281;-85
2022/01/28 06:34:58;;;;;;;;;;;3.80;99.90;;;;;;4844253;29;19924;-80
2022/01/28 06:37:23;;;;;;;;;;;3.80;99.90;;;;;;4840604;29;19973;-81
2022/01/28 06:39:49;;;;;;;;;;;3.80;99.90;;;;;;4840108;29;20351;-81
2022/01/28 06:42:14;;;;;;;;;;;3.80;99.90;;;;;;4843131;29;19940;-81
2022/01/28 06:47:10;;;;;;;;;;;5.00;99.90;;;;;;5463573;24;20384;-80
2022/01/28 06:49:36;;;;;;;;;;;3.70;99.90;;;;;;4825776;29;19924;-81
2022/01/28 06:52:01;;;;;;;;;;;4.20;99.90;;;;;;4823679;29;20288;-81
2022/01/28 06:54:27;;;;;;;;;;;3.70;99.90;;;;;;4809239;29;19924;-84
2022/01/28 06:56:52;;;;;;;;;;;3.70;99.90;;;;;;4814176;29;19929;-84
2022/01/28 06:59:18;;;;;;;;;;;3.70;99.90;;;;;;4827953;29;19940;-84
2022/01/28 07:01:46;;;;;;;;;;;3.60;99.90;;;;;;4815447;29;20389;-84
2022/01/28 07:04:15;;;;;;;;;;;3.60;99.90;;;;;;4820852;29;20028;-84
2022/01/28 07:06:43;;;;;;;;;;;3.60;99.90;;;;;;4818639;29;19924;-85
2022/01/28 07:09:10;;;;;;;;;;;3.60;99.90;;;;;;4824032;29;20292;-84
2022/01/28 07:11:35;;;;;;;;;;;3.50;99.90;;;;;;4840570;29;20424;-84
2022/01/28 07:14:01;;;;;;;;;;;3.60;99.90;;;;;;4824497;29;19924;-84
2022/01/28 07:16:27;;;;;;;;;;;3.50;99.90;;;;;;4825118;29;19924;-84
2022/01/28 07:18:52;;;;;;;;;;;3.50;99.90;;;;;;4818107;29;19929;-84
2022/01/28 07:21:18;;;;;;;;;;;3.50;99.90;;;;;;4822483;29;19984;-84
2022/01/28 07:23:45;;;;;;;;;;;3.50;99.90;;;;;;5112545;24;19928;-85
2022/01/28 07:26:11;;;;;;;;;;;3.40;99.90;;;;;;4828410;29;20395;-85
2022/01/28 07:28:39;;;;;;;;;;;3.40;99.90;;;;;;4813983;29;19920;-84
2022/01/28 07:33:40;;;;;;;;;;;3.30;99.90;;;;;;5183373;24;19925;-86
2022/01/28 07:39:28;;;;;;;;;;;2.10;99.90;;;;;;4858968;23;19928;-85
2022/01/28 07:42:06;;;;;;;;;;;3.30;99.90;;;;;;4827775;29;20392;-84
2022/01/28 07:44:31;;;;;;;;;;;3.30;99.90;;;;;;4810090;29;19928;-85
2022/01/28 07:47:12;;;;;;;;;;;3.30;99.90;;;;;;4826168;29;20389;-85
2022/01/28 07:49:55;;;;;;;;;;;3.40;99.90;;;;;;4826397;29;19925;-84
2022/01/28 07:52:23;;;;;;;;;;;3.40;99.90;;;;;;4826504;29;19932;-84
2022/01/28 07:54:58;;;;;;;;;;;3.30;99.90;;;;;;4809133;29;19964;-85
2022/01/28 07:57:34;;;;;;;;;;;4.20;99.90;;;;;;4810411;29;19925;-84
2022/01/28 08:00:00;;;;;;;;;;;3.40;99.90;;;;;;4819926;29;20018;-84
2022/01/28 08:02:31;;;;;;;;;;;3.40;99.90;;;;;;4828023;29;20035;-83
2022/01/28 08:04:57;;;;;;;;;;;3.40;99.90;;;;;;4844026;29;20323;-83
2022/01/28 08:07:23;;;;;;;;;;;3.50;99.90;;;;;;4827557;29;19973;-84
2022/01/28 08:09:48;;;;;;;;;;;3.60;99.90;;;;;;4828007;29;19992;-85
2022/01/28 08:12:14;;;;;;;;;;;3.60;99.90;;;;;;4826446;29;19954;-86
2022/01/28 08:14:39;;;;;;;;;;;3.70;99.90;;;;;;4843747;29;19947;-87
2022/01/28 08:17:05;;;;;;;;;;;3.80;99.90;;;;;;4828352;29;19953;-87
2022/01/28 08:19:30;;;;;;;;;;;3.90;99.90;;;;;;4827726;29;20392;-87
2022/01/28 08:21:56;;;;;;;;;;;4.00;99.90;;;;;;4843156;29;20376;-85
2022/01/28 08:29:44;;;;;;;;;;;4.30;99.90;;;;;;4881532;24;19929;-88
2022/01/28 08:32:25;;;;;;;;;;;3.80;99.90;;;;;;4824767;29;19932;-88
2022/01/28 08:34:59;;;;;;;;;;;4.40;99.90;;;;;;4809053;29;20019;-87
2022/01/28 08:37:34;;;;;;;;;;;5.70;99.90;;;;;;4809442;29;19925;-87
2022/01/28 08:40:39;;;;;;;;;;;4.80;99.90;;;;;;4824191;29;19936;-86
2022/01/28 08:43:04;;;;;;;;;;;6.60;99.90;;;;;;4799223;29;19924;-85
2022/01/28 08:45:39;;;;;;;;;;;6.00;99.90;;;;;;4821939;29;19924;-86
2022/01/28 08:48:14;;;;;;;;;;;6.90;99.90;;;;;;4826919;29;20016;-85
2022/01/28 08:50:45;;;;;;;;;;;6.90;99.90;;;;;;4826663;29;19979;-84
2022/01/28 08:53:32;;;;;;;;;;;6.60;99.90;;;;;;4827518;29;20038;-84
2022/01/28 08:55:57;;;;;;;;;;;8.40;99.90;;;;;;4825344;29;19975;-85
2022/01/28 08:58:23;;;;;;;;;;;9.00;99.90;;;;;;4826753;29;20373;-84
2022/01/28 09:00:52;;;;;;;;;;;9.50;99.90;;;;;;4826744;29;19973;-84
2022/01/28 09:03:18;;;;;;;;;;;9.90;99.90;;;;;;4843055;29;19928;-83
2022/01/28 09:05:44;;;;;;;;;;;10.60;99.90;;;;;;4809910;29;19982;-83
2022/01/28 09:08:10;;;;;;;;;;;11.40;99.90;;;;;;4809481;29;19968;-83
2022/01/28 09:10:37;;;;;;;;;;;12.10;99.90;;;;;;4836081;29;19931;-78
2022/01/28 09:15:29;;;;;;;;;;;12.20;99.90;;;;;;4818293;29;19920;-78
2022/01/28 09:17:56;;;;;;;;;;;11.70;99.90;;;;;;4831927;29;19998;-78
2022/01/28 09:20:21;;;;;;;;;;;11.00;99.90;;;;;;4828839;29;19921;-79
2022/01/28 09:22:47;;;;;;;;;;;10.60;99.90;;;;;;4822351;29;19925;-76
2022/01/28 09:25:12;;;;;;;;;;;10.10;99.90;;;;;;4827875;29;20003;-82
2022/01/28 09:27:38;;;;;;;;;;;9.80;99.90;;;;;;4842963;29;19925;-78
2022/01/28 09:30:03;;;;;;;;;;;9.70;99.90;;;;;;4842800;29;19928;-76
2022/01/28 09:32:29;;;;;;;;;;;9.30;99.90;;;;;;4842466;29;20242;-79
2022/01/28 09:34:55;;;;;;;;;;;9.10;99.90;;;;;;4826847;29;19967;-80
2022/01/28 09:37:21;;;;;;;;;;;8.90;99.90;;;;;;4821632;29;20007;-84
2022/01/28 09:39:55;;;;;;;;;;;9.10;99.90;;;;;;4808766;29;19954;-79
2022/01/28 09:42:46;;;;;;;;;;;10.40;99.90;;;;;;4805702;29;19925;-79
2022/01/28 09:45:14;;;;;;;;;;;10.40;99.90;;;;;;4794943;29;20280;-79
2022/01/28 09:47:46;;;;;;;;;;;11.70;99.90;;;;;;4806922;29;19924;-79
2022/01/28 09:50:18;;;;;;;;;;;14.00;99.90;;;;;;4806323;29;20027;-79
2022/01/28 09:52:44;;;;;;;;;;;13.40;99.90;;;;;;4805936;29;19932;-79
2022/01/28 09:55:09;;;;;;;;;;;13.80;99.50;;;;;;4820326;29;19925;-79
2022/01/28 09:57:41;;;;;;;;;;;14.10;99.20;;;;;;4807028;29;19925;-79
2022/01/28 10:00:08;;;;;;;;;;;14.00;99.90;;;;;;4806849;29;19924;-79
2022/01/28 10:02:59;;;;;;;;;;;14.00;97.80;;;;;;4807769;29;19928;-79
2022/01/28 10:05:33;;;;;;;;;;;14.50;98.80;;;;;;4808093;29;19925;-79
2022/01/28 10:08:00;;;;;;;;;;;13.90;98.70;;;;;;4834383;29;20525;-79
2022/01/28 10:10:26;;;;;;;;;;;14.10;97.30;;;;;;4824228;29;20369;-79
2022/01/28 10:13:09;;;;;;;;;;;14.10;97.40;;;;;;4823175;29;19931;-79
2022/01/28 10:15:35;;;;;;;;;;;14.20;98.50;;;;;;4807155;29;19924;-79
2022/01/28 10:18:00;;;;;;;;;;;14.20;97.50;;;;;;4807685;29;19947;-78
2022/01/28 10:20:29;;;;;;;;;;;14.20;96.80;;;;;;4808187;29;19924;-79
2022/01/28 10:22:57;;;;;;;;;;;14.30;96.90;;;;;;4841723;29;19935;-79
2022/01/28 10:25:33;;;;;;;;;;;14.50;97.90;;;;;;4815838;29;19980;-78
2022/01/28 10:28:09;;;;;;;;;;;15.30;97.30;;;;;;4822469;29;20240;-79
2022/01/28 10:30:39;;;;;;;;;;;16.30;94.50;;;;;;4824990;29;20353;-79
2022/01/28 10:33:09;;;;;;;;;;;16.10;93.20;;;;;;4823879;29;19932;-79
2022/01/28 10:35:34;;;;;;;;;;;15.30;93.30;;;;;;4807676;29;19923;-79
2022/01/28 10:38:02;;;;;;;;;;;14.60;95.80;;;;;;4807682;29;20385;-79
2022/01/28 10:40:28;;;;;;;;;;;13.80;96.50;;;;;;4824881;29;21419;-79
2022/01/28 10:42:53;;;;;;;;;;;13.20;98.10;;;;;;4806808;29;20011;-78
2022/01/28 10:45:20;;;;;;;;;;;13.00;98.30;;;;;;4807827;29;19925;-79
2022/01/28 10:47:50;;;;;;;;;;;12.40;99.40;;;;;;4807442;29;19967;-78
2022/01/28 10:50:18;;;;;;;;;;;12.20;99.90;;;;;;4822173;29;19981;-79
2022/01/28 10:52:44;;;;;;;;;;;11.80;99.90;;;;;;4807271;29;19925;-78
2022/01/28 10:55:17;;;;;;;;;;;11.60;99.90;;;;;;4807527;29;20403;-79
2022/01/28 10:57:54;;;;;;;;;;;11.40;99.90;;;;;;4807584;29;19972;-78
2022/01/28 11:00:19;;;;;;;;;;;11.00;99.90;;;;;;4811548;29;19921;-79
2022/01/28 11:02:45;;;;;;;;;;;10.80;99.90;;;;;;4824202;29;19924;-79
2022/01/28 11:05:10;;;;;;;;;;;10.70;99.90;;;;;;4828459;29;19920;-78
2022/01/28 11:07:36;;;;;;;;;;;10.60;99.90;;;;;;4829461;29;20064;-79
2022/01/28 11:10:02;;;;;;;;;;;10.60;99.90;;;;;;4845034;29;19924;-79
2022/01/28 11:12:27;;;;;;;;;;;10.50;99.90;;;;;;4827717;29;19924;-78
2022/01/28 11:14:53;;;;;;;;;;;10.50;99.90;;;;;;4828596;29;19931;-78
2022/01/28 11:17:18;;;;;;;;;;;10.30;99.90;;;;;;4828584;29;19924;-78
2022/01/28 11:19:44;;;;;;;;;;;10.30;99.90;;;;;;4844902;29;19925;-79
2022/01/28 11:22:15;;;;;;;;;;;10.10;99.90;;;;;;4827501;29;19924;-78
2022/01/28 11:25:00;;;;;;;;;;;10.30;99.90;;;;;;4827693;29;19924;-79
2022/01/28 11:27:37;;;;;;;;;;;11.30;99.90;;;;;;4826762;29;20435;-79
2022/01/28 11:30:22;;;;;;;;;;;12.70;99.90;;;;;;4810503;29;20398;-79
2022/01/28 11:32:52;;;;;;;;;;;13.40;99.90;;;;;;4809517;29;19925;-79
2022/01/28 11:35:19;;;;;;;;;;;14.30;99.80;;;;;;4810158;29;20053;-79
2022/01/28 11:37:44;;;;;;;;;;;15.50;97.60;;;;;;4826550;29;19973;-78
2022/01/28 11:40:11;;;;;;;;;;;16.10;96.60;;;;;;4810060;29;20318;-78
2022/01/28 11:42:37;;;;;;;;;;;17.00;94.70;;;;;;4826665;29;19928;-78
2022/01/28 11:45:04;;;;;;;;;;;17.50;94.60;;;;;;4827145;29;20065;-78
2022/01/28 11:47:37;;;;;;;;;;;18.30;90.00;;;;;;4826065;29;20362;-78
2022/01/28 11:50:10;;;;;;;;;;;18.30;82.50;;;;;;4826110;29;19925;-78
2022/01/28 11:52:39;;;;;;;;;;;18.80;82.50;;;;;;4809855;29;19928;-78
2022/01/28 11:55:25;;;;;;;;;;;18.70;81.10;;;;;;4826220;29;20259;-78
2022/01/28 11:57:53;;;;;;;;;;;18.80;82.70;;;;;;4809635;29;20056;-79
2022/01/28 12:00:35;;;;;;;;;;;19.10;78.80;;;;;;4809717;29;20016;-78
2022/01/28 12:03:15;;;;;;;;;;;19.20;77.10;;;;;;4839493;29;19924;-79
2022/01/28 12:05:48;;;;;;;;;;;19.60;78.50;;;;;;4844199;29;20274;-79
2022/01/28 12:08:14;;;;;;;;;;;19.10;77.60;;;;;;4827536;29;20381;-79
2022/01/28 12:10:43;;;;;;;;;;;19.10;71.60;;;;;;4827318;29;19925;-79
2022/01/28 12:13:17;;;;;;;;;;;19.70;77.50;;;;;;4827970;29;20259;-79
2022/01/28 12:16:03;;;;;;;;;;;19.30;70.00;;;;;;4825410;29;20019;-79
2022/01/28 12:18:49;;;;;;;;;;;18.20;76.50;;;;;;4828155;29;20068;-79
2022/01/28 12:21:46;;;;;;;;;;;18.00;77.30;;;;;;4894421;24;19925;-79
2022/01/28 12:24:37;;;;;;;;;;;17.70;78.80;;;;;;4827706;29;19928;-79
2022/01/28 12:27:07;;;;;;;;;;;16.70;84.00;;;;;;5173239;23;20018;-77
2022/01/28 12:30:06;;;;;;;;;;;17.30;86.40;;;;;;4854655;29;19967;-79
2022/01/28 12:35:52;;;;;;;;;;;16.90;80.10;;;;;;4842347;29;19975;-78
2022/01/28 12:38:34;;;;;;;;;;;17.00;85.10;;;;;;4841441;29;19963;-79
2022/01/28 12:41:14;;;;;;;;;;;14.00;90.00;;;;;;4839554;29;19940;-78
2022/01/28 12:43:53;;;;;;;;;;;13.70;94.20;;;;;;4836639;29;19925;-78
2022/01/28 12:49:31;;;;;;;;;;;11.10;99.30;;;;;;4844958;29;19924;-79
2022/01/28 12:52:05;;;;;;;;;;;11.10;99.90;;;;;;4860623;29;19935;-78
2022/01/28 12:55:00;;;;;;;;;;;11.30;99.90;;;;;;4860580;29;20019;-78
2022/01/28 12:57:40;;;;;;;;;;;11.20;99.90;;;;;;4789643;29;19940;-79
2022/01/28 13:00:21;;;;;;;;;;;11.00;99.90;;;;;;4789927;29;19925;-77
2022/01/28 13:02:50;;;;;;;;;;;10.70;99.90;;;;;;4789002;29;19952;-79
2022/01/28 13:05:54;;;;;;;;;;;12.50;99.90;;;;;;4822260;24;19928;-79
2022/01/28 13:09:02;;;;;;;;;;;10.10;99.20;;;;;;4834746;29;19982;-79
2022/01/28 13:14:46;;;;;;;;;;;10.90;99.90;;;;;;4844675;29;20019;-79
2022/01/28 13:17:17;;;;;;;;;;;10.10;99.90;;;;;;4844343;29;20006;-79
2022/01/28 13:19:42;;;;;;;;;;;10.40;99.90;;;;;;4830048;29;19924;-78
2022/01/28 13:22:08;;;;;;;;;;;11.30;99.90;;;;;;4827503;29;20325;-80
2022/01/28 13:24:34;;;;;;;;;;;11.90;99.90;;;;;;4826916;29;19925;-80
2022/01/28 13:27:04;;;;;;;;;;;12.00;99.90;;;;;;4841122;29;19968;-76
2022/01/28 13:29:30;;;;;;;;;;;11.90;99.90;;;;;;4843497;29;20055;-79
2022/01/28 13:31:57;;;;;;;;;;;12.80;99.90;;;;;;4828768;29;19924;-76
2022/01/28 13:34:23;;;;;;;;;;;11.30;99.90;;;;;;4826571;29;19980;-77
2022/01/28 13:36:49;;;;;;;;;;;10.80;99.90;;;;;;4826890;29;19920;-78
2022/01/28 13:39:17;;;;;;;;;;;10.80;99.90;;;;;;4825874;29;19925;-78
2022/01/28 13:41:42;;;;;;;;;;;10.80;99.90;;;;;;4826510;29;20369;-83
2022/01/28 13:44:21;;;;;;;;;;;10.60;99.90;;;;;;4832005;29;19931;-80
2022/01/28 13:46:54;;;;;;;;;;;10.20;99.90;;;;;;4834096;29;19924;-80
2022/01/28 13:49:20;;;;;;;;;;;9.90;99.90;;;;;;4861145;29;20018;-79
2022/01/28 13:51:46;;;;;;;;;;;9.60;99.90;;;;;;4844044;29;19931;-80
2022/01/28 13:54:15;;;;;;;;;;;9.50;99.90;;;;;;4843305;29;19928;-76
2022/01/28 13:56:47;;;;;;;;;;;9.40;99.90;;;;;;4843966;29;20277;-75
2022/01/28 13:59:13;;;;;;;;;;;8.60;99.90;;;;;;4841548;29;19931;-76
2022/01/28 14:01:42;;;;;;;;;;;9.40;99.90;;;;;;4860492;29;19925;-77
2022/01/28 14:11:24;;;;;;;;;;;9.50;99.90;;;;;;4879480;29;20007;-79
2022/01/28 14:14:11;;;;;;;;;;;9.20;99.90;;;;;;4857721;29;19947;-79
2022/01/28 14:16:37;;;;;;;;;;;9.00;99.90;;;;;;4859359;29;20390;-79
2022/01/28 14:19:02;;;;;;;;;;;8.90;99.90;;;;;;4859294;29;20010;-81
2022/01/28 14:21:28;;;;;;;;;;;8.80;99.90;;;;;;4856653;29;20391;-80
2022/01/28 14:23:53;;;;;;;;;;;8.70;99.90;;;;;;4859161;29;19998;-81
2022/01/28 14:26:20;;;;;;;;;;;8.50;99.90;;;;;;4857741;29;20031;-81
2022/01/28 14:31:24;;;;;;;;;;;9.30;99.90;;;;;;4877803;29;20023;-77
2022/01/28 14:33:54;;;;;;;;;;;8.20;99.90;;;;;;4858524;29;19984;-76
2022/01/28 14:36:20;;;;;;;;;;;8.10;99.90;;;;;;4853617;29;19924;-77
2022/01/28 14:38:46;;;;;;;;;;;8.10;99.90;;;;;;4851998;29;20262;-77
2022/01/28 14:41:12;;;;;;;;;;;8.00;99.90;;;;;;4857720;29;19928;-79
2022/01/28 14:43:37;;;;;;;;;;;8.00;99.90;;;;;;4861266;29;20441;-77
2022/01/28 14:46:03;;;;;;;;;;;7.90;99.90;;;;;;4858681;29;19956;-85
2022/01/28 14:48:28;;;;;;;;;;;7.80;99.90;;;;;;4862460;29;19931;-82
2022/01/28 14:50:54;;;;;;;;;;;7.70;99.90;;;;;;4856549;29;19931;-81
2022/01/28 14:53:20;;;;;;;;;;;7.60;99.90;;;;;;4834146;24;19976;-81
2022/01/28 14:55:45;;;;;;;;;;;7.60;99.90;;;;;;4801711;29;19929;-83
2022/01/28 14:58:11;;;;;;;;;;;7.50;99.90;;;;;;4804938;29;19925;-82
2022/01/28 15:00:36;;;;;;;;;;;7.40;99.90;;;;;;4803958;29;20011;-80
2022/01/28 15:03:03;;;;;;;;;;;7.30;99.90;;;;;;4808544;29;20294;-81
2022/01/28 15:05:55;;;;;;;;;;;7.30;99.90;;;;;;4947273;24;19931;-86
2022/01/28 15:11:52;;;;;;;;;;;6.90;99.90;;;;;;4750549;30;19926;-84
2022/01/28 15:14:26;;;;;;;;;;;7.20;99.90;;;;;;4761482;30;20404;-77
2022/01/28 15:16:54;;;;;;;;;;;7.10;99.90;;;;;;4755328;30;19948;-78
2022/01/28 15:19:29;;;;;;;;;;;7.10;99.90;;;;;;4758310;30;20399;-78
2022/01/28 15:22:00;;;;;;;;;;;7.10;99.90;;;;;;4757318;30;19925;-79
2022/01/28 15:24:27;;;;;;;;;;;7.00;99.90;;;;;;4757423;30;19941;-77
2022/01/28 15:26:55;;;;;;;;;;;6.90;99.90;;;;;;4814843;29;19932;-76
2022/01/28 15:37:31;;;;;;;;;;;6.90;99.90;;;;;;4816833;29;19931;-79
2022/01/28 15:39:57;;;;;;;;;;;6.90;99.90;;;;;;4829019;29;19947;-80
2022/01/28 15:42:23;;;;;;;;;;;6.90;99.90;;;;;;4830838;29;19930;-78
2022/01/28 15:52:34;;;;;;;;;;;6.80;99.90;;;;;;4912983;23;19932;-80
2022/01/28 15:55:00;;;;;;;;;;;6.80;99.90;;;;;;4833430;29;19924;-78
2022/01/28 15:57:29;;;;;;;;;;;6.70;99.90;;;;;;4840941;29;20349;-81
2022/01/28 15:59:54;;;;;;;;;;;7.80;99.90;;;;;;4840340;29;20015;-77
2022/01/28 16:02:19;;;;;;;;;;;6.70;99.90;;;;;;4843475;29;20026;-83
2022/01/28 16:04:46;;;;;;;;;;;6.60;99.90;;;;;;4845484;29;20436;-82
2022/01/28 16:07:14;;;;;;;;;;;6.60;99.90;;;;;;4837442;29;20334;-77
2022/01/28 16:09:48;;;;;;;;;;;6.50;99.90;;;;;;4855031;24;19925;-83
2022/01/28 16:12:30;;;;;;;;;;;6.50;99.90;;;;;;4821313;29;19932;-86
2022/01/28 16:17:45;;;;;;;;;;;6.40;99.90;;;;;;4831420;29;19934;-80
2022/01/28 16:20:11;;;;;;;;;;;6.40;99.90;;;;;;4822750;29;20014;-79
2022/01/28 16:22:36;;;;;;;;;;;6.40;99.90;;;;;;4821339;29;19928;-81
2022/01/28 16:25:02;;;;;;;;;;;6.30;99.90;;;;;;4824343;29;19931;-82
2022/01/28 16:27:27;;;;;;;;;;;6.30;99.90;;;;;;4831294;29;20378;-83
2022/01/28 16:29:53;;;;;;;;;;;6.30;99.90;;;;;;4817510;29;20420;-80
2022/01/28 16:32:21;;;;;;;;;;;6.20;99.90;;;;;;4828298;29;19947;-80
2022/01/28 16:34:47;;;;;;;;;;;6.20;99.90;;;;;;4835724;29;19928;-76
2022/01/28 16:37:12;;;;;;;;;;;6.20;99.90;;;;;;4829882;29;19931;-76
2022/01/28 16:39:39;;;;;;;;;;;6.10;99.90;;;;;;4820635;29;19924;-78
2022/01/28 16:42:08;;;;;;;;;;;6.10;99.90;;;;;;4835443;29;19967;-82
2022/01/28 16:44:44;;;;;;;;;;;6.10;99.90;;;;;;4826013;29;19983;-80
2022/01/28 16:47:10;;;;;;;;;;;6.10;99.90;;;;;;4815323;29;19954;-75
2022/01/28 16:49:35;;;;;;;;;;;7.40;99.90;;;;;;4815815;29;19925;-80
2022/01/28 16:52:01;;;;;;;;;;;6.10;99.90;;;;;;4822451;24;20042;-78
2022/01/28 16:54:28;;;;;;;;;;;6.00;99.90;;;;;;4818087;29;19925;-83
2022/01/28 16:56:53;;;;;;;;;;;6.00;99.90;;;;;;4819445;29;19925;-82
2022/01/28 16:59:19;;;;;;;;;;;6.00;99.90;;;;;;4821382;29;19933;-89
2022/01/28 17:01:45;;;;;;;;;;;6.00;99.90;;;;;;4818914;29;19935;-84
2022/01/28 17:04:10;;;;;;;;;;;6.10;99.90;;;;;;4814156;29;20404;-81
2022/01/28 17:06:36;;;;;;;;;;;6.10;99.90;;;;;;4821223;29;19925;-87
2022/01/28 17:09:03;;;;;;;;;;;6.10;99.90;;;;;;4820646;29;20102;-77
2022/01/28 17:13:57;;;;;;;;;;;6.00;99.90;;;;;;4823597;29;19925;-84
2022/01/28 17:16:23;;;;;;;;;;;6.00;99.90;;;;;;4824318;29;19925;-87
2022/01/28 17:18:50;;;;;;;;;;;6.00;99.90;;;;;;4824259;29;19928;-86
2022/01/28 17:21:16;;;;;;;;;;;6.20;99.90;;;;;;4831215;29;19925;-84
2022/01/28 17:23:44;;;;;;;;;;;6.10;99.90;;;;;;4834840;29;20007;-85
2022/01/28 17:26:11;;;;;;;;;;;6.00;99.90;;;;;;4824181;29;19931;-87
2022/01/28 17:28:36;;;;;;;;;;;6.00;99.90;;;;;;4825087;29;19925;-79
2022/01/28 17:31:05;;;;;;;;;;;6.00;99.90;;;;;;4823767;29;19925;-87
2022/01/28 17:33:37;;;;;;;;;;;6.10;99.90;;;;;;4824561;29;20278;-84
2022/01/28 17:36:03;;;;;;;;;;;6.10;99.90;;;;;;4819842;29;20024;-82
2022/01/28 17:38:32;;;;;;;;;;;6.10;99.90;;;;;;4805652;29;20031;-89
2022/01/28 17:40:58;;;;;;;;;;;6.10;99.90;;;;;;4805341;29;19925;-80
2022/01/28 17:43:24;;;;;;;;;;;6.10;99.90;;;;;;4805210;29;20001;-77
2022/01/28 17:45:50;;;;;;;;;;;6.10;99.90;;;;;;4811733;29;19925;-81
2022/01/28 17:48:15;;;;;;;;;;;6.10;99.90;;;;;;4823092;29;20354;-85
2022/01/28 17:50:47;;;;;;;;;;;6.10;99.90;;;;;;4821478;29;19964;-77
2022/01/28 17:53:13;;;;;;;;;;;6.10;99.90;;;;;;4822624;29;19928;-80
2022/01/28 17:59:07;;;;;;;;;;;5.20;99.90;;;;;;4859977;29;19923;-78
2022/01/28 18:01:58;;;;;;;;;;;6.10;99.90;;;;;;4846888;29;20376;-77
2022/01/28 18:04:23;;;;;;;;;;;6.20;99.90;;;;;;4857187;29;19931;-83
2022/01/28 18:09:36;;;;;;;;;;;6.30;99.90;;;;;;5129694;24;19924;-83
2022/01/28 18:12:03;;;;;;;;;;;6.60;99.90;;;;;;4840366;29;19963;-79
2022/01/28 18:14:28;;;;;;;;;;;6.30;99.90;;;;;;4826563;29;19932;-82
2022/01/28 18:16:54;;;;;;;;;;;6.30;99.90;;;;;;4826978;29;19920;-77
2022/01/28 18:19:19;;;;;;;;;;;6.40;99.90;;;;;;4825319;29;19976;-77
2022/01/28 18:21:46;;;;;;;;;;;6.40;99.90;;;;;;4841391;29;19924;-80
2022/01/28 18:24:11;;;;;;;;;;;6.40;99.90;;;;;;4857551;29;20368;-78
2022/01/28 18:26:37;;;;;;;;;;;6.40;99.90;;;;;;4842751;29;19931;-79
2022/01/28 18:29:03;;;;;;;;;;;6.50;99.90;;;;;;4835661;29;19973;-79
2022/01/28 18:31:28;;;;;;;;;;;6.40;99.90;;;;;;4852238;29;20404;-80
2022/01/28 18:33:54;;;;;;;;;;;6.40;99.90;;;;;;4829254;29;19925;-80
2022/01/28 18:36:19;;;;;;;;;;;6.40;99.90;;;;;;4840473;29;19981;-81
2022/01/28 18:38:49;;;;;;;;;;;6.40;99.90;;;;;;4829902;29;19924;-81
2022/01/28 18:41:18;;;;;;;;;;;6.40;99.90;;;;;;4834770;29;19931;-81
2022/01/28 18:43:46;;;;;;;;;;;6.40;99.90;;;;;;4830436;29;19995;-81
2022/01/28 18:46:14;;;;;;;;;;;6.40;99.90;;;;;;4840850;29;20015;-81
2022/01/28 18:48:40;;;;;;;;;;;6.40;99.90;;;;;;4824735;29;19924;-80
2022/01/28 18:51:06;;;;;;;;;;;6.30;99.90;;;;;;4825762;29;19996;-80
2022/01/28 18:53:32;;;;;;;;;;;6.30;99.90;;;;;;4836538;29;19928;-79
2022/01/28 18:55:57;;;;;;;;;;;6.40;99.90;;;;;;4842274;29;19924;-79
2022/01/28 18:58:24;;;;;;;;;;;6.30;99.90;;;;;;4847436;29;19976;-81
2022/01/28 19:00:52;;;;;;;;;;;6.30;99.90;;;;;;4842266;29;19981;-81
2022/01/28 19:03:19;;;;;;;;;;;6.30;99.90;;;;;;4830299;29;20428;-81
2022/01/28 19:05:44;;;;;;;;;;;6.30;99.90;;;;;;4833984;29;19928;-79
2022/01/28 19:08:10;;;;;;;;;;;6.20;99.90;;;;;;4854129;29;20257;-79
2022/01/28 19:10:35;;;;;;;;;;;6.00;99.90;;;;;;4838490;29;19924;-80
2022/01/28 19:13:01;;;;;;;;;;;6.20;99.90;;;;;;4842775;29;19924;-79
2022/01/28 19:15:30;;;;;;;;;;;6.30;99.90;;;;;;4834836;29;20361;-79
2022/01/28 19:17:55;;;;;;;;;;;6.20;99.90;;;;;;4832572;29;19929;-79
2022/01/28 19:20:21;;;;;;;;;;;6.20;99.90;;;;;;4840666;29;19920;-79
2022/01/28 19:22:46;;;;;;;;;;;6.20;99.90;;;;;;4830890;29;20052;-85
2022/01/28 19:25:13;;;;;;;;;;;6.20;99.90;;;;;;4841290;29;19999;-80
2022/01/28 19:27:38;;;;;;;;;;;6.20;99.90;;;;;;4836838;29;20388;-87
2022/01/28 19:30:05;;;;;;;;;;;6.20;99.90;;;;;;4844607;29;19924;-82
2022/01/28 19:32:32;;;;;;;;;;;6.30;99.90;;;;;;4831704;29;20378;-81
2022/01/28 19:34:57;;;;;;;;;;;6.30;99.90;;;;;;4842806;29;19980;-83
2022/01/28 19:37:23;;;;;;;;;;;6.20;99.90;;;;;;4830357;29;19947;-78
2022/01/28 19:39:48;;;;;;;;;;;6.30;99.90;;;;;;4833901;29;19931;-78
2022/01/28 19:42:14;;;;;;;;;;;6.20;99.90;;;;;;4856395;29;19971;-77
2022/01/28 19:44:40;;;;;;;;;;;6.20;99.90;;;;;;4830027;29;19931;-76
2022/01/28 19:47:06;;;;;;;;;;;6.20;99.90;;;;;;4840336;29;20011;-77
2022/01/28 19:49:31;;;;;;;;;;;6.20;99.90;;;;;;4835402;29;19924;-78
2022/01/28 19:51:57;;;;;;;;;;;6.20;99.90;;;;;;4851426;29;19928;-79
2022/01/28 19:54:23;;;;;;;;;;;6.30;99.90;;;;;;4841359;29;20268;-79
2022/01/28 19:56:48;;;;;;;;;;;6.30;99.90;;;;;;4830623;29;19975;-79
2022/01/28 19:59:14;;;;;;;;;;;6.30;99.90;;;;;;4840466;29;20346;-78
2022/01/28 20:01:40;;;;;;;;;;;6.80;99.90;;;;;;4835666;29;19990;-79